Time;durP1;ratioP1;P1;durP2;ratioP2;P2;SDS_P1;SDS_P2;PMS_P1;PMS_P2;Temp;Humidity;BMP_temperature;BMP_pressure;BME280_temperature;BME280_humidity;BME280_pressure;Samples;Min_cycle;Max_cycle;Signal;HPM_P1;HPM_P2
2023/05/15 00:00:05;;;;;;;15.05;9.90;;;;;;;12.14;85.56;101410.75;5031909;28;20101;-78
2023/05/15 00:02:32;;;;;;;13.95;9.75;;;;;;;12.11;85.22;101416.06;5032514;28;20376;-79
2023/05/15 00:04:57;;;;;;;16.58;10.10;;;;;;;12.09;86.07;101418.69;5032884;28;20104;-79
2023/05/15 00:07:23;;;;;;;16.38;10.30;;;;;;;12.09;85.65;101412.63;5032185;28;20598;-79
2023/05/15 00:09:48;;;;;;;16.08;10.60;;;;;;;12.09;85.76;101413.47;5032014;28;20021;-79
2023/05/15 00:12:14;;;;;;;13.95;9.73;;;;;;;12.08;85.68;101416.13;5031336;28;20546;-79
2023/05/15 00:14:39;;;;;;;14.70;9.77;;;;;;;12.07;85.57;101419.63;5032729;28;20017;-79
2023/05/15 00:17:05;;;;;;;14.88;9.93;;;;;;;12.04;85.80;101412.69;5031915;28;20086;-79
2023/05/15 00:19:30;;;;;;;16.63;10.10;;;;;;;11.99;85.77;101407.59;5031197;28;20017;-79
2023/05/15 00:21:55;;;;;;;14.48;10.07;;;;;;;11.97;85.87;101404.13;5031679;28;20018;-79
2023/05/15 00:24:21;;;;;;;16.30;10.52;;;;;;;11.97;85.79;101404.13;5031767;28;20508;-79
2023/05/15 00:26:46;;;;;;;15.68;10.82;;;;;;;11.96;85.90;101402.41;5030925;28;20100;-79
2023/05/15 00:29:11;;;;;;;16.05;11.68;;;;;;;11.93;85.60;101396.44;5032153;28;20492;-79
2023/05/15 00:31:36;;;;;;;15.82;11.60;;;;;;;11.90;85.68;101397.34;5032469;28;20033;-79
2023/05/15 00:34:02;;;;;;;18.33;12.38;;;;;;;11.83;85.60;101390.56;5031903;28;20052;-79
2023/05/15 00:36:27;;;;;;;16.77;11.85;;;;;;;11.80;85.88;101391.50;5030096;28;20068;-79
2023/05/15 00:38:52;;;;;;;17.58;11.48;;;;;;;11.75;85.80;101392.50;5032759;28;20368;-79
2023/05/15 00:41:21;;;;;;;16.83;11.90;;;;;;;11.72;86.07;101393.41;5032726;28;20063;-79
2023/05/15 00:43:49;;;;;;;16.20;12.38;;;;;;;11.70;86.01;101384.75;5031081;28;20052;-79
2023/05/15 00:46:15;;;;;;;18.20;12.45;;;;;;;11.68;86.02;101391.78;5033434;28;20036;-79
2023/05/15 00:48:41;;;;;;;18.38;12.43;;;;;;;11.65;86.14;101397.88;5032838;28;20037;-79
2023/05/15 00:51:08;;;;;;;18.67;12.07;;;;;;;11.62;86.23;101395.34;5032159;28;20068;-79
2023/05/15 00:53:33;;;;;;;22.48;12.80;;;;;;;11.60;86.09;101396.28;5032588;28;20021;-79
2023/05/15 00:56:01;;;;;;;18.63;12.55;;;;;;;11.56;86.47;101387.66;5032013;28;20099;-79
2023/05/15 00:58:28;;;;;;;19.08;12.18;;;;;;;11.53;86.17;101387.72;5031605;28;20028;-79
2023/05/15 01:00:53;;;;;;;16.95;12.38;;;;;;;11.49;86.58;101376.53;5032554;28;20051;-79
2023/05/15 01:03:19;;;;;;;17.58;12.10;;;;;;;11.46;86.39;101387.00;5033505;28;20469;-79
2023/05/15 01:05:45;;;;;;;19.23;12.23;;;;;;;11.44;86.39;101380.13;5031872;28;20025;-79
2023/05/15 01:08:31;;;;;;;17.58;12.75;;;;;;;11.42;86.20;101376.69;5032553;28;20013;-79
2023/05/15 01:10:57;;;;;;;18.85;12.13;;;;;;;11.38;86.39;101379.34;5032319;28;20037;-79
2023/05/15 01:13:23;;;;;;;19.00;12.52;;;;;;;11.34;86.88;101377.69;5033856;28;20083;-84
2023/05/15 01:15:49;;;;;;;19.65;12.07;;;;;;;11.31;86.79;101388.16;5033760;28;20052;-79
2023/05/15 01:18:14;;;;;;;18.90;12.90;;;;;;;11.28;86.62;101377.78;5032290;28;20079;-79
2023/05/15 01:21:04;;;;;;;18.02;12.23;;;;;;;11.27;86.51;101391.75;5032681;28;20076;-78
2023/05/15 01:23:53;;;;;;;18.95;13.05;;;;;;;11.25;86.86;101383.09;5031554;28;20044;-79
2023/05/15 01:26:33;;;;;;;16.75;11.13;;;;;;;11.21;86.68;101376.22;5031831;28;20373;-79
2023/05/15 01:29:12;;;;;;;20.23;12.25;;;;;;;11.20;86.97;101379.72;5031941;28;20083;-79
2023/05/15 01:31:40;;;;;;;17.33;11.77;;;;;;;11.20;86.92;101375.34;5030870;28;20025;-79
2023/05/15 01:34:08;;;;;;;18.70;12.52;;;;;;;11.19;87.01;101372.78;5031293;28;20021;-79
2023/05/15 01:36:46;;;;;;;19.23;12.32;;;;;;;11.20;86.64;101366.69;5032208;28;20021;-79
2023/05/15 01:39:15;;;;;;;17.88;12.63;;;;;;;11.19;86.99;101363.22;5032558;28;20029;-79
2023/05/15 01:41:48;;;;;;;18.63;13.00;;;;;;;11.19;86.87;101362.38;5031717;28;20033;-79
2023/05/15 01:44:18;;;;;;;19.00;13.00;;;;;;;11.15;87.07;101358.97;5029723;28;20053;-79
2023/05/15 01:46:48;;;;;;;20.30;13.10;;;;;;;11.14;87.25;101361.59;5043632;28;20029;-79
2023/05/15 01:49:16;;;;;;;20.33;12.52;;;;;;;11.14;87.25;101372.00;5030627;28;20053;-78
2023/05/15 01:51:44;;;;;;;21.80;14.38;;;;;;;11.13;87.22;101372.88;5030066;28;20051;-78
2023/05/15 01:54:12;;;;;;;20.38;14.27;;;;;;;11.12;87.12;101368.56;5028394;28;20492;-79
2023/05/15 01:56:39;;;;;;;22.85;14.70;;;;;;;11.10;87.23;101367.78;5028981;28;20100;-78
2023/05/15 01:59:06;;;;;;;23.42;13.77;;;;;;;11.09;86.96;101356.47;5027809;28;20040;-78
2023/05/15 02:01:32;;;;;;;22.80;14.15;;;;;;;11.08;86.83;101367.78;5031316;28;20025;-78
2023/05/15 02:04:00;;;;;;;19.58;14.27;;;;;;;11.06;87.01;101369.56;5031440;28;20017;-78
2023/05/15 02:06:27;;;;;;;23.20;14.65;;;;;;;11.03;87.05;101370.47;5031552;28;20051;-78
2023/05/15 02:08:56;;;;;;;21.83;14.43;;;;;;;10.99;87.23;101361.00;5030769;28;20021;-78
2023/05/15 02:11:21;;;;;;;22.80;15.20;;;;;;;10.99;87.20;101363.59;5031660;28;20171;-78
2023/05/15 02:13:47;;;;;;;22.13;15.40;;;;;;;10.98;87.14;101369.69;5031576;28;20536;-79
2023/05/15 02:16:13;;;;;;;22.73;15.52;;;;;;;10.97;87.12;101372.34;5031401;28;20025;-78
2023/05/15 02:18:38;;;;;;;24.30;15.45;;;;;;;10.96;87.39;101363.66;5030918;28;20033;-78
2023/05/15 02:21:03;;;;;;;23.88;15.70;;;;;;;10.96;87.13;101363.66;5031304;28;20018;-78
2023/05/15 02:23:29;;;;;;;23.17;15.30;;;;;;;10.96;86.81;101361.06;5031521;28;20049;-78
2023/05/15 02:26:20;;;;;;;22.30;15.20;;;;;;;10.96;87.26;101360.22;5030951;28;20053;-78
2023/05/15 02:29:12;;;;;;;21.77;14.88;;;;;;;10.96;86.90;101352.41;5030977;28;20058;-78
2023/05/15 02:31:51;;;;;;;22.20;14.75;;;;;;;10.93;86.77;101355.94;5031200;28;20021;-78
2023/05/15 02:34:49;;;;;;;22.50;15.32;;;;;;;10.92;86.87;101354.22;5030525;28;20028;-78
2023/05/15 02:37:23;;;;;;;29.45;16.40;;;;;;;10.89;87.13;101351.66;5030805;28;20026;-78
2023/05/15 02:39:52;;;;;;;24.15;15.60;;;;;;;10.88;87.14;101355.16;5029480;28;20028;-78
2023/05/15 02:42:18;;;;;;;29.25;16.30;;;;;;;10.87;87.27;101356.88;5030059;28;20036;-79
2023/05/15 02:44:45;;;;;;;25.05;16.33;;;;;;;10.85;87.26;101353.44;5030308;28;20038;-79
2023/05/15 02:47:11;;;;;;;24.38;16.08;;;;;;;10.83;87.23;101359.56;5031928;28;20053;-78
2023/05/15 02:49:37;;;;;;;27.13;16.77;;;;;;;10.81;87.58;101361.34;5030909;28;20049;-79
2023/05/15 02:52:04;;;;;;;26.60;16.70;;;;;;;10.79;87.30;101369.19;5029984;28;20144;-79
2023/05/15 02:54:29;;;;;;;24.83;16.58;;;;;;;10.75;87.32;101363.19;5030935;28;20049;-78
2023/05/15 02:56:54;;;;;;;27.55;17.40;;;;;;;10.73;87.64;101364.09;5031177;28;20536;-78
2023/05/15 02:59:20;;;;;;;26.48;16.55;;;;;;;10.69;87.57;101352.88;5031197;28;20483;-78
2023/05/15 03:01:46;;;;;;;27.02;17.02;;;;;;;10.68;87.29;101361.56;5028646;28;20026;-79
2023/05/15 03:04:13;;;;;;;29.30;17.58;;;;;;;10.64;87.49;101365.13;5030001;28;20107;-78
2023/05/15 03:06:39;;;;;;;25.40;16.17;;;;;;;10.57;87.58;101356.56;5031595;28;20038;-78
2023/05/15 03:09:04;;;;;;;26.73;17.08;;;;;;;10.53;87.45;101356.66;5032480;28;20021;-79
2023/05/15 03:11:29;;;;;;;24.85;16.65;;;;;;;10.52;87.48;101354.94;5032927;28;20029;-79
2023/05/15 03:13:54;;;;;;;29.13;18.13;;;;;;;10.44;87.66;101353.31;5034406;28;20021;-79
2023/05/15 03:16:20;;;;;;;28.63;17.88;;;;;;;10.41;87.42;101348.19;5034246;28;20534;-78
2023/05/15 03:18:45;;;;;;;30.52;18.65;;;;;;;10.39;87.57;101354.25;5033375;28;20033;-78
2023/05/15 03:21:10;;;;;;;30.52;18.27;;;;;;;10.36;87.92;101351.69;5034301;28;20431;-78
2023/05/15 03:23:36;;;;;;;31.75;18.52;;;;;;;10.32;87.96;101353.47;5033274;28;20021;-78
2023/05/15 03:26:01;;;;;;;27.95;18.75;;;;;;;10.26;88.13;101354.44;5034215;28;20532;-78
2023/05/15 03:28:27;;;;;;;28.50;18.85;;;;;;;10.26;88.25;101350.97;5032243;28;20021;-78
2023/05/15 03:30:52;;;;;;;30.88;18.45;;;;;;;10.23;88.00;101351.03;5034230;28;20063;-78
2023/05/15 03:33:17;;;;;;;35.95;20.30;;;;;;;10.16;88.13;101347.69;5033866;28;20068;-78
2023/05/15 03:35:43;;;;;;;31.77;19.83;;;;;;;10.10;88.32;101359.00;5033666;28;20042;-79
2023/05/15 03:38:08;;;;;;;30.60;19.02;;;;;;;10.06;88.65;101346.09;5032515;28;20029;-78
2023/05/15 03:40:34;;;;;;;30.48;19.33;;;;;;;10.03;88.62;101347.84;5033979;28;20056;-78
2023/05/15 03:42:59;;;;;;;29.40;18.48;;;;;;;10.02;88.49;101350.50;5034005;28;20029;-79
2023/05/15 03:45:24;;;;;;;29.35;18.67;;;;;;;9.99;88.84;101350.53;5033854;28;20503;-78
2023/05/15 03:47:50;;;;;;;32.00;19.13;;;;;;;9.95;88.73;101346.25;5033487;28;20389;-78
2023/05/15 03:50:15;;;;;;;34.30;20.17;;;;;;;9.93;88.75;101350.63;5033517;28;20060;-79
2023/05/15 03:52:40;;;;;;;31.25;19.58;;;;;;;9.90;88.89;101350.69;5033388;28;20033;-78
2023/05/15 03:55:06;;;;;;;30.35;19.13;;;;;;;9.88;89.00;101342.88;5032993;28;20036;-78
2023/05/15 03:57:32;;;;;;;31.00;19.15;;;;;;;9.90;88.88;101345.50;5032177;28;20037;-78
2023/05/15 03:59:57;;;;;;;31.77;18.95;;;;;;;9.90;89.17;101351.53;5033785;28;20072;-78
2023/05/15 04:02:22;;;;;;;31.70;19.63;;;;;;;9.89;89.00;101348.97;5036126;28;20062;-79
2023/05/15 04:04:48;;;;;;;34.85;20.33;;;;;;;9.89;88.89;101349.81;5033412;28;20044;-79
2023/05/15 04:07:13;;;;;;;36.22;20.73;;;;;;;9.85;89.10;101343.81;5032680;28;20096;-79
2023/05/15 04:09:38;;;;;;;33.80;20.23;;;;;;;9.84;89.02;101339.50;5033364;28;20833;-79
2023/05/15 04:12:04;;;;;;;34.65;19.98;;;;;;;9.83;88.99;101336.88;5033952;28;20025;-78
2023/05/15 04:14:29;;;;;;;34.38;19.67;;;;;;;9.80;89.08;101335.22;5032614;28;20021;-78
2023/05/15 04:16:55;;;;;;;33.25;19.38;;;;;;;9.78;89.05;101336.13;5032208;28;20048;-79
2023/05/15 04:19:20;;;;;;;33.70;20.05;;;;;;;9.78;89.29;101336.97;5031592;28;20026;-79
2023/05/15 04:21:45;;;;;;;34.00;19.92;;;;;;;9.76;89.24;101328.34;5032068;28;20022;-78
2023/05/15 04:24:11;;;;;;;36.00;20.38;;;;;;;9.76;89.10;101335.28;5032787;28;20082;-79
2023/05/15 04:26:36;;;;;;;35.63;20.42;;;;;;;9.74;89.19;101337.03;5032750;28;20381;-78
2023/05/15 04:29:02;;;;;;;35.20;19.98;;;;;;;9.74;89.36;101335.28;5034176;28;20025;-79
2023/05/15 04:31:27;;;;;;;38.55;19.65;;;;;;;9.76;89.40;101343.91;5031301;28;20033;-79
2023/05/15 04:33:52;;;;;;;36.60;20.45;;;;;;;9.77;89.45;101345.63;5031475;28;20025;-78
2023/05/15 04:36:18;;;;;;;34.35;20.05;;;;;;;9.78;89.31;101343.91;5032205;28;20033;-78
2023/05/15 04:38:43;;;;;;;35.88;19.92;;;;;;;9.80;89.62;101344.75;5029513;28;20025;-81
2023/05/15 04:41:08;;;;;;;35.53;20.40;;;;;;;9.85;89.71;101348.13;5031606;28;20026;-78
2023/05/15 04:43:33;;;;;;;36.83;20.20;;;;;;;9.90;89.60;101361.09;5032145;28;20032;-79
2023/05/15 04:45:59;;;;;;;36.17;19.85;;;;;;;9.90;89.97;101361.91;5033183;28;20030;-79
2023/05/15 04:48:24;;;;;;;39.00;19.95;;;;;;;9.93;90.00;101371.41;5032137;28;20025;-79
2023/05/15 04:50:50;;;;;;;38.33;20.70;;;;;;;9.94;89.74;101366.19;5031795;28;20120;-79
2023/05/15 04:53:16;;;;;;;35.00;19.30;;;;;;;9.94;89.09;101379.19;5032319;28;20033;-78
2023/05/15 04:55:41;;;;;;;39.80;21.35;;;;;;;9.89;88.54;101380.16;5031132;28;20473;-78
2023/05/15 04:58:06;;;;;;;38.05;20.77;;;;;;;9.83;89.29;101381.06;5030699;28;20053;-78
2023/05/15 05:00:31;;;;;;;39.80;20.63;;;;;;;9.83;89.05;101387.16;5030490;28;20386;-78
2023/05/15 05:02:57;;;;;;;33.25;19.27;;;;;;;9.81;88.98;101388.91;5031278;28;20021;-78
2023/05/15 05:05:22;;;;;;;34.30;19.25;;;;;;;9.83;88.82;101386.25;5030735;28;20028;-78
2023/05/15 05:07:50;;;;;;;32.70;18.40;;;;;;;9.83;88.99;101386.25;5030242;28;20369;-79
2023/05/15 05:10:15;;;;;;;32.50;18.73;;;;;;;9.83;88.44;101387.16;5030882;28;20033;-79
2023/05/15 05:12:41;;;;;;;32.58;18.23;;;;;;;9.83;88.56;101379.34;5031100;28;20040;-79
2023/05/15 05:15:07;;;;;;;31.63;18.15;;;;;;;9.87;89.16;101387.94;5031270;28;20029;-79
2023/05/15 05:17:32;;;;;;;31.95;18.15;;;;;;;9.91;88.74;101388.75;5030740;28;20668;-79
2023/05/15 05:19:57;;;;;;;31.25;17.70;;;;;;;9.93;88.51;101389.59;5032238;28;20087;-79
2023/05/15 05:22:22;;;;;;;32.35;17.73;;;;;;;9.95;88.70;101396.50;5031395;28;20029;-78
2023/05/15 05:24:48;;;;;;;31.42;18.20;;;;;;;10.00;88.26;101389.50;5029996;28;20514;-78
2023/05/15 05:27:13;;;;;;;30.67;17.13;;;;;;;10.01;88.01;101398.16;5031899;28;20018;-78
2023/05/15 05:29:38;;;;;;;29.48;16.88;;;;;;;10.02;87.81;101397.28;5031721;28;20499;-79
2023/05/15 05:32:05;;;;;;;31.20;16.92;;;;;;;10.04;88.34;101390.31;5030713;28;20029;-78
2023/05/15 05:34:30;;;;;;;30.38;16.88;;;;;;;10.08;88.10;101396.31;5030649;28;20056;-79
2023/05/15 05:36:56;;;;;;;31.08;17.67;;;;;;;10.10;87.82;101395.41;5033432;28;20115;-79
2023/05/15 05:39:21;;;;;;;28.45;16.65;;;;;;;10.14;87.45;101397.09;5030711;28;20033;-78
2023/05/15 05:41:46;;;;;;;27.85;16.33;;;;;;;10.16;87.44;101410.94;5028974;28;20491;-78
2023/05/15 05:44:12;;;;;;;32.17;17.35;;;;;;;10.20;87.58;101414.34;5031508;28;20068;-78
2023/05/15 05:46:37;;;;;;;29.10;17.33;;;;;;;10.23;86.86;101409.09;5031804;28;20025;-78
2023/05/15 05:49:02;;;;;;;30.17;17.92;;;;;;;10.26;87.42;101410.78;5030909;28;20437;-78
2023/05/15 05:51:27;;;;;;;27.05;16.83;;;;;;;10.30;87.00;101412.47;5029564;28;20055;-78
2023/05/15 05:53:53;;;;;;;27.02;16.90;;;;;;;10.33;86.82;101412.41;5032374;28;20079;-78
2023/05/15 05:56:18;;;;;;;26.48;16.90;;;;;;;10.38;86.86;101410.66;5029058;28;20021;-78
2023/05/15 05:58:44;;;;;;;27.90;17.20;;;;;;;10.41;86.10;101400.19;5031829;28;20366;-78
2023/05/15 06:01:09;;;;;;;26.85;15.52;;;;;;;10.39;85.85;101399.34;5031635;28;20461;-78
2023/05/15 06:03:35;;;;;;;28.02;17.75;;;;;;;10.39;86.12;101395.88;5030635;28;20028;-78
2023/05/15 06:06:00;;;;;;;27.63;17.95;;;;;;;10.40;86.38;101402.81;5031722;28;20032;-78
2023/05/15 06:08:28;;;;;;;28.63;18.58;;;;;;;10.38;85.91;101405.44;5030734;28;20025;-78
2023/05/15 06:10:53;;;;;;;28.02;17.65;;;;;;;10.39;86.51;101407.16;5032980;28;20384;-78
2023/05/15 06:13:18;;;;;;;26.27;16.92;;;;;;;10.45;86.28;101401.84;5031501;28;20029;-78
2023/05/15 06:15:45;;;;;;;25.80;16.95;;;;;;;10.50;86.89;101399.19;5031733;28;20072;-78
2023/05/15 06:18:10;;;;;;;26.67;17.30;;;;;;;10.60;86.76;101408.53;5030471;28;20523;-78
2023/05/15 06:20:35;;;;;;;23.90;16.60;;;;;;;10.69;86.78;101404.94;5030665;28;20063;-78
2023/05/15 06:23:01;;;;;;;26.27;16.30;;;;;;;10.75;86.28;101411.78;5031384;28;20029;-78
2023/05/15 06:25:26;;;;;;;25.80;16.73;;;;;;;10.83;85.75;101412.50;5030461;28;20508;-78
2023/05/15 06:27:51;;;;;;;25.02;16.05;;;;;;;10.87;84.99;101414.16;5032023;28;20017;-78
2023/05/15 06:30:17;;;;;;;24.13;15.52;;;;;;;10.89;84.06;101417.59;5029563;28;20140;-78
2023/05/15 06:32:42;;;;;;;23.67;15.90;;;;;;;10.90;84.67;101419.31;5028249;28;20025;-78
2023/05/15 06:35:08;;;;;;;26.65;16.55;;;;;;;10.93;84.63;101415.81;5029237;28;20096;-79
2023/05/15 06:37:34;;;;;;;25.17;16.10;;;;;;;10.93;83.90;101413.22;5028972;28;20064;-79
2023/05/15 06:40:00;;;;;;;24.55;16.13;;;;;;;10.93;82.17;101418.41;5026268;28;20025;-78
2023/05/15 06:42:25;;;;;;;25.40;16.45;;;;;;;10.94;83.96;101414.91;5033517;28;20021;-79
2023/05/15 06:44:51;;;;;;;23.23;15.48;;;;;;;10.98;83.92;101418.31;5036170;28;20420;-78
2023/05/15 06:47:16;;;;;;;22.70;16.02;;;;;;;11.02;83.98;101409.53;5034583;28;20563;-79
2023/05/15 06:49:41;;;;;;;21.75;15.02;;;;;;;11.03;82.60;101409.53;5028566;28;20033;-78
2023/05/15 06:52:07;;;;;;;21.73;14.50;;;;;;;11.03;82.31;101404.31;5032471;28;20119;-78
2023/05/15 06:54:32;;;;;;;22.52;14.48;;;;;;;11.03;82.30;101406.94;5031176;28;20033;-78
2023/05/15 06:56:57;;;;;;;22.52;14.07;;;;;;;11.07;81.79;101405.13;5032950;28;20025;-78
2023/05/15 06:59:23;;;;;;;23.08;14.35;;;;;;;11.12;81.64;101405.03;5034159;28;20032;-78
2023/05/15 07:01:48;;;;;;;24.05;14.35;;;;;;;11.15;82.13;101407.56;5030166;28;20022;-79
2023/05/15 07:04:13;;;;;;;23.42;13.95;;;;;;;11.22;81.96;101411.78;5028432;28;20029;-78
2023/05/15 07:06:38;;;;;;;21.60;13.50;;;;;;;11.29;81.99;101400.34;5031586;28;20033;-78
2023/05/15 07:09:04;;;;;;;19.88;13.85;;;;;;;11.39;82.54;101412.31;5031056;28;20050;-78
2023/05/15 07:11:29;;;;;;;24.27;15.13;;;;;;;11.53;83.15;101404.19;5030928;28;20330;-78
2023/05/15 07:13:55;;;;;;;26.23;15.52;;;;;;;11.61;82.12;101401.47;5029531;28;20079;-78
2023/05/15 07:16:20;;;;;;;23.85;15.60;;;;;;;11.66;81.76;101399.59;5031261;28;20041;-78
2023/05/15 07:18:45;;;;;;;24.95;15.85;;;;;;;11.75;81.17;101402.91;5031751;28;20113;-78
2023/05/15 07:21:11;;;;;;;23.10;15.27;;;;;;;11.79;81.36;101405.41;5028147;28;20112;-79
2023/05/15 07:23:36;;;;;;;24.38;15.07;;;;;;;11.80;80.21;101401.91;5030867;28;20465;-79
2023/05/15 07:26:01;;;;;;;23.98;14.90;;;;;;;11.82;80.10;101400.13;5031200;28;20075;-78
2023/05/15 07:28:26;;;;;;;22.77;15.13;;;;;;;11.89;80.45;101398.25;5033865;28;20029;-79
2023/05/15 07:30:52;;;;;;;22.85;15.50;;;;;;;11.94;79.78;101403.34;5029951;28;20025;-79
2023/05/15 07:33:17;;;;;;;24.75;15.55;;;;;;;12.02;79.84;101400.59;5027240;28;20091;-79
2023/05/15 07:35:43;;;;;;;27.25;15.80;;;;;;;12.07;79.76;101396.16;5032142;28;20045;-78
2023/05/15 07:38:08;;;;;;;23.75;15.90;;;;;;;12.12;78.09;101402.13;5029869;28;20499;-78
2023/05/15 07:40:33;;;;;;;21.23;14.63;;;;;;;12.15;77.66;101396.81;5030536;28;20043;-78
2023/05/15 07:42:59;;;;;;;22.98;14.63;;;;;;;12.22;77.65;101397.53;5032126;28;20022;-78
2023/05/15 07:45:24;;;;;;;20.55;13.90;;;;;;;12.22;75.05;101403.63;5030190;28;20029;-78
2023/05/15 07:47:50;;;;;;;21.40;14.48;;;;;;;12.21;76.66;101404.50;5029869;28;20384;-78
2023/05/15 07:50:16;;;;;;;24.05;15.07;;;;;;;12.22;77.15;101408.84;5032324;28;20038;-79
2023/05/15 07:52:41;;;;;;;21.65;14.18;;;;;;;12.23;74.07;101404.47;5024392;28;20395;-79
2023/05/15 07:55:08;;;;;;;21.25;14.73;;;;;;;12.23;73.36;101400.13;5024524;28;20021;-78
2023/05/15 07:57:33;;;;;;;22.83;15.23;;;;;;;12.22;76.25;101395.78;5026112;28;20673;-78
2023/05/15 08:00:01;;;;;;;21.00;14.60;;;;;;;12.24;76.41;101396.63;5025705;28;20037;-78
2023/05/15 08:02:26;;;;;;;20.58;15.02;;;;;;;12.29;77.46;101399.97;5026174;28;20025;-78
2023/05/15 08:04:52;;;;;;;20.23;14.18;;;;;;;12.36;76.29;101394.59;5028604;28;20025;-78
2023/05/15 08:07:17;;;;;;;21.92;14.95;;;;;;;12.43;77.00;101390.94;5030938;28;20506;-78
2023/05/15 08:09:42;;;;;;;22.05;14.73;;;;;;;12.50;76.90;101382.06;5024401;28;20083;-78
2023/05/15 08:12:19;;;;;;;20.90;14.55;;;;;;;12.58;77.39;101393.19;5028015;28;20461;-78
2023/05/15 08:14:49;;;;;;;18.23;13.32;;;;;;;12.65;77.51;101386.03;5029164;28;20308;-78
2023/05/15 08:17:15;;;;;;;21.48;14.02;;;;;;;12.69;75.20;101384.19;5032192;28;20412;-78
2023/05/15 08:19:40;;;;;;;21.83;14.90;;;;;;;12.74;76.71;101380.56;5030314;28;20033;-78
2023/05/15 08:22:05;;;;;;;20.92;14.35;;;;;;;12.80;77.73;101376.09;5031102;28;20033;-78
2023/05/15 08:24:31;;;;;;;19.17;14.18;;;;;;;12.86;77.04;101383.78;5031410;28;20393;-78
2023/05/15 08:26:56;;;;;;;20.83;15.02;;;;;;;12.92;77.30;101380.97;5032110;28;20021;-78
2023/05/15 08:29:21;;;;;;;22.52;15.15;;;;;;;13.00;76.13;101378.16;5031640;28;20477;-78
2023/05/15 08:31:47;;;;;;;20.15;14.35;;;;;;;13.07;74.77;101382.31;5032251;28;20107;-79
2023/05/15 08:34:12;;;;;;;20.13;14.30;;;;;;;13.12;74.82;101380.47;5031268;28;20484;-78
2023/05/15 08:36:37;;;;;;;19.88;14.63;;;;;;;13.24;73.70;101386.22;5034425;28;20069;-78
2023/05/15 08:39:03;;;;;;;21.98;15.05;;;;;;;13.36;74.55;101378.03;5032066;28;20025;-78
2023/05/15 08:41:32;;;;;;;19.13;14.43;;;;;;;13.46;73.60;101382.13;5032129;28;20395;-79
2023/05/15 08:44:02;;;;;;;21.38;13.73;;;;;;;13.60;72.65;101380.88;5032449;28;20076;-78
2023/05/15 08:46:27;;;;;;;20.38;15.18;;;;;;;13.74;72.48;101381.31;5030208;28;20041;-78
2023/05/15 08:48:54;;;;;;;18.88;14.25;;;;;;;13.87;72.47;101378.31;5030225;28;20041;-78
2023/05/15 08:51:21;;;;;;;19.95;15.10;;;;;;;14.00;72.49;101382.28;5030632;28;20084;-78
2023/05/15 08:53:47;;;;;;;20.30;14.52;;;;;;;14.10;69.71;101381.06;5032408;28;20029;-78
2023/05/15 08:56:12;;;;;;;21.00;15.00;;;;;;;14.22;71.61;101378.94;5031510;28;20033;-78
2023/05/15 08:58:38;;;;;;;18.17;13.43;;;;;;;14.32;69.77;101372.53;5030831;28;20056;-78
2023/05/15 09:01:04;;;;;;;19.17;13.70;;;;;;;14.38;69.02;101374.91;5031283;28;20029;-78
2023/05/15 09:03:30;;;;;;;18.00;14.10;;;;;;;14.42;70.54;101373.09;5031142;28;20052;-78
2023/05/15 09:05:56;;;;;;;20.77;14.27;;;;;;;14.48;69.32;101372.84;5026563;28;20681;-78
2023/05/15 09:08:22;;;;;;;19.35;14.23;;;;;;;14.57;68.05;101372.56;5029265;28;20032;-78
2023/05/15 09:10:48;;;;;;;17.08;14.07;;;;;;;14.63;67.76;101371.50;5030873;28;20037;-78
2023/05/15 09:13:14;;;;;;;20.98;14.68;;;;;;;14.69;68.38;101367.84;5030117;28;20373;-78
2023/05/15 09:15:39;;;;;;;17.25;13.20;;;;;;;14.71;66.27;101385.19;5029640;28;20037;-78
2023/05/15 09:18:05;;;;;;;19.30;13.68;;;;;;;14.71;67.64;101372.09;5030266;28;20104;-78
2023/05/15 09:20:36;;;;;;;19.02;13.55;;;;;;;14.78;68.52;101371.91;5031991;28;20044;-78
2023/05/15 09:23:03;;;;;;;18.02;12.98;;;;;;;14.82;67.35;101381.38;5028926;28;20033;-78
2023/05/15 09:25:33;;;;;;;18.85;13.02;;;;;;;14.89;68.60;101382.84;5030801;28;20099;-78
2023/05/15 09:27:59;;;;;;;17.00;13.35;;;;;;;14.98;69.54;101379.91;5029748;28;20039;-78
2023/05/15 09:30:26;;;;;;;16.75;12.57;;;;;;;15.06;67.66;101389.25;5030297;28;20025;-78
2023/05/15 09:32:53;;;;;;;17.00;12.82;;;;;;;15.11;69.28;101384.72;5030835;28;20044;-78
2023/05/15 09:35:34;;;;;;;18.88;13.25;;;;;;;15.10;68.67;101376.00;5029506;28;20074;-78
2023/05/15 09:38:01;;;;;;;19.20;13.35;;;;;;;15.11;66.48;101389.94;5028277;28;21429;-78
2023/05/15 09:40:30;;;;;;;15.82;12.10;;;;;;;15.14;64.74;101384.59;5029946;28;20029;-78
2023/05/15 09:42:57;;;;;;;15.95;12.02;;;;;;;15.13;63.92;101390.75;5026724;28;20033;-79
2023/05/15 09:45:25;;;;;;;16.80;12.43;;;;;;;15.08;62.08;101380.44;5028232;28;20029;-78
2023/05/15 09:47:51;;;;;;;15.40;11.60;;;;;;;15.08;62.58;101384.81;5022510;28;21388;-78
2023/05/15 09:50:23;;;;;;;16.85;12.32;;;;;;;15.03;62.89;101377.97;5025308;28;20048;-79
2023/05/15 09:52:50;;;;;;;17.10;12.25;;;;;;;15.05;63.20;101370.06;5026571;28;20099;-79
2023/05/15 09:55:18;;;;;;;14.27;11.18;;;;;;;15.12;65.38;101368.06;5027274;28;20076;-79
2023/05/15 09:57:43;;;;;;;14.57;10.55;;;;;;;15.23;65.39;101376.38;5027508;28;20057;-78
2023/05/15 10:00:10;;;;;;;13.75;10.43;;;;;;;15.29;64.11;101373.56;5026831;28;20080;-78
2023/05/15 10:02:40;;;;;;;14.68;10.95;;;;;;;15.28;64.85;101379.69;5026646;28;20033;-78
2023/05/15 10:05:06;;;;;;;16.80;12.10;;;;;;;15.27;64.57;101377.16;5025203;28;20022;-78
2023/05/15 10:07:33;;;;;;;16.77;12.52;;;;;;;15.29;63.23;101380.53;5023455;28;20456;-78
2023/05/15 10:09:59;;;;;;;16.10;12.43;;;;;;;15.31;62.97;101386.59;5027582;28;20025;-78
2023/05/15 10:12:25;;;;;;;17.70;12.82;;;;;;;15.28;64.69;101384.94;5025175;28;20049;-78
2023/05/15 10:14:54;;;;;;;17.50;13.25;;;;;;;15.30;65.38;101393.63;5024674;28;20433;-79
2023/05/15 10:17:20;;;;;;;18.13;12.77;;;;;;;15.30;64.80;101380.50;5028179;28;20074;-78
2023/05/15 10:19:49;;;;;;;17.77;13.40;;;;;;;15.32;66.75;101381.31;5028186;28;20135;-78
2023/05/15 10:22:20;;;;;;;16.77;12.80;;;;;;;15.39;66.68;101374.06;5028557;28;20388;-78
2023/05/15 10:24:47;;;;;;;17.75;11.73;;;;;;;15.42;65.74;101389.69;5026706;28;20021;-78
2023/05/15 10:27:14;;;;;;;17.85;12.68;;;;;;;15.38;64.00;101387.22;5026452;28;20036;-79
2023/05/15 10:29:40;;;;;;;18.38;13.70;;;;;;;15.33;65.10;101396.13;5026655;28;20399;-78
2023/05/15 10:32:06;;;;;;;19.20;13.77;;;;;;;15.27;64.97;101388.47;5029468;28;20036;-78
2023/05/15 10:34:31;;;;;;;21.10;13.98;;;;;;;15.22;65.22;101390.41;5026669;28;20029;-78
2023/05/15 10:36:57;;;;;;;19.77;13.35;;;;;;;15.16;66.06;101388.03;5026755;28;20033;-78
2023/05/15 10:39:26;;;;;;;18.48;12.75;;;;;;;15.16;66.57;101382.78;5026774;28;20033;-78
2023/05/15 10:41:52;;;;;;;17.80;13.25;;;;;;;15.21;68.46;101391.31;5025681;28;20057;-78
2023/05/15 10:44:19;;;;;;;18.33;13.88;;;;;;;15.22;67.48;101387.78;5031338;28;20033;-78
2023/05/15 10:46:45;;;;;;;19.63;13.93;;;;;;;15.21;67.58;101395.72;5025565;28;20442;-79
2023/05/15 10:49:10;;;;;;;16.92;12.43;;;;;;;15.17;67.24;101380.09;5033024;28;20029;-79
2023/05/15 10:51:38;;;;;;;16.42;12.88;;;;;;;15.25;68.51;101382.44;5024734;28;20053;-78
2023/05/15 10:54:03;;;;;;;16.88;13.57;;;;;;;15.35;67.96;101385.56;5025888;28;20029;-78
2023/05/15 10:56:30;;;;;;;16.80;13.25;;;;;;;15.40;68.43;101383.63;5027183;28;20111;-78
2023/05/15 10:58:55;;;;;;;17.77;13.20;;;;;;;15.39;68.60;101383.69;5026137;28;20052;-78
2023/05/15 11:01:30;;;;;;;19.70;14.13;;;;;;;15.41;67.76;101381.84;5025183;28;20037;-78
2023/05/15 11:04:09;;;;;;;19.75;13.43;;;;;;;15.41;66.97;101381.84;5025087;28;20082;-78
2023/05/15 11:06:36;;;;;;;17.92;13.32;;;;;;;15.33;67.03;101383.03;5023433;28;20039;-78